METAR stanice u blizini

 

LYBE - Beograd / Surčin, Srbija
Ažurirano: 28/02/2024 05:30
Vedro
Vedro
 Pravac vetra IJI
Vetar: IJI 19 km/h
Temperatura: 12°C
Tačka rose: 5°C
Vlažnost: 63%
Pritisak: 1017 hPa
Pregled: Vedro
Vidljivost: greater than 10 km
2024/02/28 04:30 LYBE 280430Z 12010KT CAVOK 12/05 Q1017 NOSIG
LYBT - Beograd / Batajnica, Srbija
Ažurirano: 28/02/2024 05:30
Vedro
Vedro
 Pravac vetra IJI
Vetar: IJI 17 km/h
Temperatura: 10°C
Osećaj hladnoće: 8°C
Tačka rose: 6°C
Vlažnost: 76%
Pritisak: 1017 hPa
Pregled: Vedro
Vidljivost: greater than 10 km
2024/02/28 04:30 LYBT 280430Z 11009KT CAVOK 10/06 Q1017 NOSIG
LYVR - Vršac, Srbija
Ažurirano: 28/02/2024 05:30
Vedro
Vedro
 Pravac vetra JI
Vetar: JI 48 km/h, Maks.: 74 km/h
Temperatura: 13°C
Tačka rose: 0°C
Vlažnost: 41%
Pritisak: 1017 hPa
Pregled: Vedro
Vidljivost: greater than 10 km
2024/02/28 04:30 LYVR 280430Z AUTO 13026G40KT CAVOK 13/00 Q1017
 
LYKV - Lađevci, Srbija
Ažurirano: 28/02/2024 05:30
Vedro
Vedro
 Pravac vetra varies
Vetar: varies 4 km/h
Temperatura: 5°C
Tačka rose: 5°C
Vlažnost: 100%
Pritisak: 1018 hPa
Pregled: Vedro
Vidljivost: greater than 10 km
2024/02/28 04:30 LYKV 280430Z VRB02KT CAVOK 05/05 Q1018 NOSIG
LYNI - Niš, Srbija
Ažurirano: 28/02/2024 05:30
Vedro
Vedro
 Pravac vetra I
Vetar: I 19 km/h
Temperatura: 11°C
Tačka rose: 4°C
Vlažnost: 62%
Pritisak: 1019 hPa
Pregled: Vedro
Vidljivost: greater than 10 km
2024/02/28 04:30 LYNI 280430Z 09010KT CAVOK 11/04 Q1019 NOSIG
BKPR - Priština, Srbija
Ažurirano: 28/02/2024 06:00
Partly Cloudy
Partly Cloudy
 Pravac vetra JJI
Vetar: JJI 6 km/h
Temperatura: 6°C
Tačka rose: 4°C
Vlažnost: 87%
Pritisak: 1019 hPa
Oblaci: Partly Cloudy
Vidljivost: 10 km
Cloud details: Partly Cloudy 2438 m
2024/02/28 05:00 BKPR 280500Z 15003KT 130V190 9999 SCT080 06/04 Q1019 NOSIG
 
LHPP - Pecs / Pogany, Hungary
Ažurirano: 28/02/2024 05:15
Vedro
Vedro
 Pravac vetra ISI
Vetar: ISI 9 km/h
Temperatura: 8°C
Osećaj hladnoće: 6°C
Tačka rose: 6°C
Vlažnost: 87%
Pritisak: 1016 hPa
Pregled: Vedro
Vidljivost: greater than 10 km
2024/02/28 04:15 LHPP 280415Z AUTO 06005KT CAVOK 08/06 Q1016
LHUD - Szeged, Hungary
Ažurirano: 04/07/2019 01:45
NOT Current
Vedro
Vedro
 Pravac vetra S
Vetar: S 7 km/h
Temperatura: 18°C
Tačka rose: 13°C
Vlažnost: 73%
Pritisak: 1019 hPa
Pregled: Vedro
Vidljivost: greater than 10 km
2019/07/03 23:45 LHUD 032345Z 35004KT CAVOK 18/13 Q1019
LRTR - Timisoara, Romania
Ažurirano: 28/02/2024 05:30
Vedro
Vedro
 Pravac vetra I
Vetar: I 17 km/h
Temperatura: 8°C
Osećaj hladnoće: 5°C
Tačka rose: 2°C
Vlažnost: 66%
Pritisak: 1018 hPa
Pregled: Vedro
Vidljivost: greater than 10 km
2024/02/28 04:30 LRTR 280430Z 10009KT CAVOK 08/02 Q1018
 
LRCV - Craiova, Romania
Ažurirano: 28/02/2024 05:30
Vedro
Vedro
 Pravac vetra I
Vetar: I 13 km/h
Temperatura: 4°C
Osećaj hladnoće: 1°C
Tačka rose: 2°C
Vlažnost: 87%
Pritisak: 1021 hPa
Pregled: Vedro
Vidljivost: greater than 10 km
2024/02/28 04:30 LRCV 280430Z 08007KT CAVOK 04/02 Q1021
LBSF - Sofia, Bulgaria
Ažurirano: 28/02/2024 05:30
Partly Cloudy
Partly Cloudy
 Pravac vetra IJI
Vetar: IJI 7 km/h
Temperatura: 5°C
Osećaj hladnoće: 3°C
Tačka rose: 3°C
Vlažnost: 87%
Pritisak: 1021 hPa
Oblaci: Partly Cloudy
Vidljivost: 7 km
2024/02/28 04:30 LBSF 280430Z 11004KT 7000 NSC 05/03 Q1021 TEMPO 3000 BR
LWSK - Skoplje, Makedonija
Ažurirano: 28/02/2024 05:30
Mostly Cloudy
Mostly Cloudy
 Pravac vetra S
Vetar: S 2 km/h
Temperatura: 7°C
Tačka rose: 6°C
Vlažnost: 93%
Pritisak: 1020 hPa
Oblaci: Mostly Cloudy
Vidljivost: 10 km
Cloud details: Few Clouds 1219 m
Mostly Cloudy 2134 m
2024/02/28 04:30 LWSK 280430Z 01001KT 9999 FEW040 BKN070 07/06 Q1020 NOSIG
 
LYPG - Podgorica, Crna Gora
Ažurirano: 28/02/2024 05:30
Vedro
Vedro
 Pravac vetra SSZ
Vetar: SSZ 4 km/h
Temperatura: 9°C
Tačka rose: 8°C
Vlažnost: 94%
Pritisak: 1017 hPa
Pregled: Vedro
Vidljivost: greater than 10 km
2024/02/28 04:30 LYPG 280430Z 33002KT CAVOK 09/08 Q1017 NOSIG
LQSA - Sarajevo, Bosna i Hercegovina
Ažurirano: 28/02/2024 05:30
Vedro
Vedro
 Pravac vetra JI
Vetar: JI 19 km/h
Temperatura: 13°C
Tačka rose: 4°C
Vlažnost: 55%
Pritisak: 1014 hPa
Pregled: Vedro
Vidljivost: greater than 10 km
2024/02/28 04:30 LQSA 280430Z 13010KT CAVOK 13/04 Q1014 NOSIG
LDOS - Osijek, Hrvatksa
Ažurirano: 28/02/2024 05:30
Vedro
Vedro
 Pravac vetra ISI
Vetar: ISI 6 km/h
Temperatura: 7°C
Tačka rose: 5°C
Vlažnost: 87%
Pritisak: 1016 hPa
Pregled: Vedro
Vidljivost: greater than 10 km
2024/02/28 04:30 LDOS 280430Z 06003KT CAVOK 07/05 Q1016